createdAt,value
2018-12-15T00:01:56.818Z,1.40
2018-12-15T00:04:25.253Z,1.40
2018-12-15T00:06:53.651Z,1.40
2018-12-15T00:09:22.189Z,1.40
2018-12-15T00:11:50.582Z,1.40
2018-12-15T00:14:18.963Z,1.40
2018-12-15T00:16:47.323Z,1.40
2018-12-15T00:19:15.709Z,1.40
2018-12-15T00:21:44.112Z,1.40
2018-12-15T00:24:12.584Z,1.40
2018-12-15T00:26:40.993Z,1.30
2018-12-15T00:29:09.380Z,1.40
2018-12-15T00:31:37.773Z,1.30
2018-12-15T00:34:06.128Z,1.30
2018-12-15T00:36:34.548Z,1.30
2018-12-15T00:39:03.667Z,1.30
2018-12-15T00:41:32.096Z,1.30
2018-12-15T00:44:00.487Z,1.30
2018-12-15T00:46:28.976Z,1.30
2018-12-15T00:48:57.458Z,1.30
2018-12-15T00:51:25.926Z,1.30
2018-12-15T00:53:54.328Z,1.30
2018-12-15T00:56:22.700Z,1.30
2018-12-15T00:58:51.052Z,1.30
2018-12-15T01:01:19.488Z,1.30
2018-12-15T01:03:47.966Z,1.20
2018-12-15T01:06:16.335Z,1.20
2018-12-15T01:08:51.362Z,1.20
2018-12-15T01:11:19.747Z,1.20
2018-12-15T01:13:48.116Z,1.20
2018-12-15T01:16:16.493Z,1.20
2018-12-15T01:18:44.892Z,1.20
2018-12-15T01:21:13.207Z,1.20
2018-12-15T01:23:41.623Z,1.20
2018-12-15T01:26:09.976Z,1.20
2018-12-15T01:28:38.360Z,1.20
2018-12-15T01:31:06.719Z,1.20
2018-12-15T01:33:35.095Z,1.20
2018-12-15T01:36:03.481Z,1.10
2018-12-15T01:38:31.872Z,1.10
2018-12-15T01:41:00.208Z,1.10
2018-12-15T01:43:28.588Z,1.10
2018-12-15T01:45:56.923Z,1.10
2018-12-15T01:48:25.327Z,1.10
2018-12-15T01:50:53.659Z,1.10
2018-12-15T01:53:22.012Z,1.10
2018-12-15T01:55:50.447Z,1.10
2018-12-15T01:58:18.811Z,1.10
2018-12-15T02:00:47.167Z,1.10
2018-12-15T02:03:15.630Z,1.10
2018-12-15T02:05:44.001Z,1.10
2018-12-15T02:08:12.426Z,1.00
2018-12-15T02:10:40.836Z,1.10
2018-12-15T02:13:09.199Z,1.00
2018-12-15T02:15:37.560Z,1.10
2018-12-15T02:18:05.896Z,1.00
2018-12-15T02:20:34.340Z,1.10
2018-12-15T02:23:02.874Z,1.10
2018-12-15T02:25:31.240Z,1.00
2018-12-15T02:27:59.592Z,1.00
2018-12-15T02:30:27.960Z,1.00
2018-12-15T02:32:56.359Z,1.10
2018-12-15T02:35:24.739Z,1.10
2018-12-15T02:37:53.247Z,1.00
2018-12-15T02:40:21.807Z,1.00
2018-12-15T02:42:50.164Z,1.10
2018-12-15T02:45:18.547Z,1.00
2018-12-15T02:47:47.005Z,1.10
2018-12-15T02:50:15.425Z,1.00
2018-12-15T02:52:43.895Z,1.00
2018-12-15T02:55:12.231Z,1.10
2018-12-15T02:57:40.608Z,1.10
2018-12-15T03:00:09.087Z,1.10
2018-12-15T03:02:37.469Z,1.10
2018-12-15T03:05:06.061Z,1.10
2018-12-15T03:07:34.423Z,1.10
2018-12-15T03:10:02.925Z,1.10
2018-12-15T03:12:31.303Z,1.10
2018-12-15T03:14:59.643Z,1.10
2018-12-15T03:17:27.996Z,1.10
2018-12-15T03:20:01.080Z,1.10
2018-12-15T03:22:29.523Z,1.10
2018-12-15T03:24:57.879Z,1.10
2018-12-15T03:27:26.245Z,1.10
2018-12-15T03:29:54.594Z,1.10
2018-12-15T03:32:23.028Z,1.10
2018-12-15T03:34:51.453Z,1.10
2018-12-15T03:37:19.807Z,1.10
2018-12-15T03:39:48.139Z,1.10
2018-12-15T03:42:16.478Z,1.10
2018-12-15T03:44:45.116Z,1.10
2018-12-15T03:47:13.507Z,1.10
2018-12-15T03:49:41.948Z,1.10
2018-12-15T03:52:10.297Z,1.10
2018-12-15T03:54:38.640Z,1.10
2018-12-15T03:57:07.142Z,1.20
2018-12-15T03:59:35.884Z,1.10
2018-12-15T04:02:04.274Z,1.10
2018-12-15T04:04:33.276Z,1.10
2018-12-15T04:07:01.756Z,1.10
2018-12-15T04:09:30.189Z,1.10
2018-12-15T04:11:58.523Z,1.10
2018-12-15T04:14:27.398Z,1.10
2018-12-15T04:16:55.803Z,1.10
2018-12-15T04:19:24.147Z,1.10
2018-12-15T04:21:52.521Z,1.10
2018-12-15T04:24:21.129Z,1.10
2018-12-15T04:26:49.519Z,1.10
2018-12-15T04:29:17.894Z,1.10
2018-12-15T04:31:46.227Z,1.10
2018-12-15T04:34:14.663Z,1.10
2018-12-15T04:36:42.991Z,1.10
2018-12-15T04:39:11.425Z,1.10
2018-12-15T04:41:39.804Z,1.10
2018-12-15T04:44:08.262Z,1.10
2018-12-15T04:46:36.622Z,1.10
2018-12-15T04:49:04.950Z,1.10
2018-12-15T04:51:33.327Z,1.10
2018-12-15T04:54:01.739Z,1.10
2018-12-15T04:56:30.123Z,1.10
2018-12-15T04:58:58.487Z,1.00
2018-12-15T05:01:27.020Z,1.00
2018-12-15T05:03:55.463Z,1.00
2018-12-15T05:06:23.864Z,1.00
2018-12-15T05:08:52.423Z,1.00
2018-12-15T05:11:20.803Z,1.00
2018-12-15T05:13:49.259Z,1.00
2018-12-15T05:16:17.819Z,1.00
2018-12-15T05:18:46.173Z,1.00
2018-12-15T05:21:14.615Z,1.10
2018-12-15T05:23:42.954Z,1.00
2018-12-15T05:26:11.311Z,1.00
2018-12-15T05:28:39.688Z,1.10
2018-12-15T05:31:08.091Z,1.10
2018-12-15T05:33:36.463Z,1.10
2018-12-15T05:36:04.972Z,1.00
2018-12-15T05:38:33.329Z,1.10
2018-12-15T05:41:01.664Z,1.00
2018-12-15T05:43:30.083Z,1.00
2018-12-15T05:45:58.417Z,1.00
2018-12-15T05:48:26.780Z,1.00
2018-12-15T05:50:55.199Z,1.10
2018-12-15T05:53:23.556Z,1.00
2018-12-15T05:55:51.960Z,1.00
2018-12-15T05:58:20.347Z,1.00
2018-12-15T06:00:48.930Z,1.00
2018-12-15T06:03:17.404Z,1.00
2018-12-15T06:05:45.746Z,1.00
2018-12-15T06:08:14.139Z,1.00
2018-12-15T06:10:42.576Z,1.00
2018-12-15T06:13:10.952Z,1.00
2018-12-15T06:15:39.364Z,1.00
2018-12-15T06:18:07.828Z,1.00
2018-12-15T06:20:36.234Z,1.00
2018-12-15T06:23:04.603Z,1.00
2018-12-15T06:25:33.008Z,1.00
2018-12-15T06:28:01.410Z,1.00
2018-12-15T06:30:29.755Z,1.00
2018-12-15T06:32:58.115Z,1.10
2018-12-15T06:35:26.463Z,1.00
2018-12-15T06:37:54.868Z,1.10
2018-12-15T06:40:23.226Z,1.10
2018-12-15T06:42:52.596Z,1.10
2018-12-15T06:45:20.995Z,1.10
2018-12-15T06:47:49.394Z,1.10
2018-12-15T06:50:17.946Z,1.10
2018-12-15T06:52:46.343Z,1.10
2018-12-15T06:55:14.715Z,1.10
2018-12-15T06:57:49.374Z,1.10
2018-12-15T07:00:17.862Z,1.10
2018-12-15T07:02:46.331Z,1.10
2018-12-15T07:05:14.791Z,1.10
2018-12-15T07:07:43.187Z,1.10
2018-12-15T07:10:11.601Z,1.10
2018-12-15T07:12:39.963Z,1.10
2018-12-15T07:15:08.600Z,1.10
2018-12-15T07:17:37.393Z,1.10
2018-12-15T07:20:06.275Z,1.10
2018-12-15T07:22:34.723Z,1.10
2018-12-15T07:25:03.242Z,1.10
2018-12-15T07:27:31.826Z,1.10
2018-12-15T07:30:00.208Z,1.10
2018-12-15T07:32:28.562Z,1.10
2018-12-15T07:35:00.988Z,1.10
2018-12-15T07:37:27.481Z,1.10
2018-12-15T07:39:55.864Z,1.10
2018-12-15T07:42:24.347Z,1.10
2018-12-15T07:44:52.699Z,1.10
2018-12-15T07:47:21.130Z,1.10
2018-12-15T07:49:49.560Z,1.10
2018-12-15T07:52:18.122Z,1.10
2018-12-15T07:54:46.481Z,1.10
2018-12-15T07:57:14.835Z,1.10
2018-12-15T07:59:43.313Z,1.10
2018-12-15T08:02:11.708Z,1.10
2018-12-15T08:04:40.130Z,1.10
2018-12-15T08:07:08.653Z,1.10
2018-12-15T08:09:37.231Z,1.10
2018-12-15T08:12:11.171Z,1.10
2018-12-15T08:14:39.600Z,1.10
2018-12-15T08:17:07.985Z,1.20
2018-12-15T08:19:36.371Z,1.20
2018-12-15T08:22:04.827Z,1.20
2018-12-15T08:24:33.167Z,1.20
2018-12-15T08:27:01.688Z,1.20
2018-12-15T08:29:30.026Z,1.20
2018-12-15T08:31:58.395Z,1.20
2018-12-15T08:34:26.845Z,1.20
2018-12-15T08:36:55.207Z,1.20
2018-12-15T08:39:23.600Z,1.30
2018-12-15T08:41:51.972Z,1.30
2018-12-15T08:44:20.419Z,1.30
2018-12-15T08:46:48.845Z,1.30
2018-12-15T08:49:17.252Z,1.30
2018-12-15T08:51:45.760Z,1.30
2018-12-15T08:54:14.215Z,1.30
2018-12-15T08:56:42.620Z,1.40
2018-12-15T08:59:10.951Z,1.40
2018-12-15T09:01:39.320Z,1.40
2018-12-15T09:04:07.853Z,1.40
2018-12-15T09:06:36.396Z,1.40
2018-12-15T09:09:06.564Z,1.40
2018-12-15T09:11:34.997Z,1.40
2018-12-15T09:14:03.365Z,1.40
2018-12-15T09:16:31.986Z,1.40
2018-12-15T09:19:00.571Z,1.50
2018-12-15T09:21:29.086Z,1.50
2018-12-15T09:23:57.443Z,1.50
2018-12-15T09:26:25.828Z,1.50
2018-12-15T09:28:54.205Z,1.50
2018-12-15T09:31:22.615Z,1.50
2018-12-15T09:33:51.011Z,1.60
2018-12-15T09:36:19.374Z,1.60
2018-12-15T09:38:47.751Z,1.60
2018-12-15T09:41:16.187Z,1.60
2018-12-15T09:43:44.679Z,1.60
2018-12-15T09:46:13.124Z,1.60
2018-12-15T09:48:41.520Z,1.70
2018-12-15T09:51:09.940Z,1.70
2018-12-15T09:53:38.489Z,1.70
2018-12-15T09:56:07.086Z,1.70
2018-12-15T09:58:35.528Z,1.70
2018-12-15T10:01:04.004Z,1.70
2018-12-15T10:03:32.452Z,1.80
2018-12-15T10:06:01.388Z,1.80
2018-12-15T10:08:29.832Z,1.80
2018-12-15T10:10:58.421Z,1.80
2018-12-15T10:13:26.824Z,1.80
2018-12-15T10:15:55.332Z,1.80
2018-12-15T10:18:23.919Z,1.80
2018-12-15T10:20:52.316Z,1.80
2018-12-15T10:23:20.680Z,1.90
2018-12-15T10:25:49.096Z,1.90
2018-12-15T10:28:17.539Z,1.90
2018-12-15T10:30:51.498Z,1.90
2018-12-15T10:33:19.941Z,1.90
2018-12-15T10:35:48.404Z,1.90
2018-12-15T10:38:16.791Z,1.90
2018-12-15T10:40:45.310Z,1.90
2018-12-15T10:43:13.676Z,1.90
2018-12-15T10:45:42.216Z,2.00
2018-12-15T10:48:10.649Z,2.00
2018-12-15T10:50:39.059Z,2.10
2018-12-15T10:53:07.508Z,2.10
2018-12-15T10:55:35.910Z,2.10
2018-12-15T10:58:04.397Z,2.10
2018-12-15T11:00:38.160Z,2.10
2018-12-15T11:03:06.649Z,2.10
2018-12-15T11:05:35.027Z,2.10
2018-12-15T11:08:03.729Z,2.10
2018-12-15T11:10:32.086Z,2.20
2018-12-15T11:13:00.444Z,2.20
2018-12-15T11:15:28.863Z,2.20
2018-12-15T11:17:57.229Z,2.20
2018-12-15T11:20:25.700Z,2.20
2018-12-15T11:22:54.327Z,2.20
2018-12-15T11:25:22.707Z,2.20
2018-12-15T11:27:51.076Z,2.20
2018-12-15T11:30:19.485Z,2.20
2018-12-15T11:32:47.904Z,2.20
2018-12-15T11:35:16.272Z,2.20
2018-12-15T11:37:44.707Z,2.20
2018-12-15T11:40:13.097Z,2.20
2018-12-15T11:42:41.628Z,2.20
2018-12-15T11:45:10.071Z,2.20
2018-12-15T11:47:38.586Z,2.20
2018-12-15T11:50:07.323Z,2.20
2018-12-15T11:52:35.687Z,2.20
2018-12-15T11:55:04.180Z,2.20
2018-12-15T11:57:32.721Z,2.30
2018-12-15T12:00:01.110Z,2.20
2018-12-15T12:02:31.997Z,2.20
2018-12-15T12:04:59.979Z,2.20
2018-12-15T12:07:28.822Z,2.20
2018-12-15T12:09:57.607Z,2.30
2018-12-15T12:12:26.440Z,2.30
2018-12-15T12:14:55.486Z,2.30
2018-12-15T12:17:24.124Z,2.20
2018-12-15T12:19:52.588Z,2.20
2018-12-15T12:22:20.993Z,2.20
2018-12-15T12:24:49.436Z,2.20
2018-12-15T12:27:18.301Z,2.10
2018-12-15T12:29:47.459Z,2.10
2018-12-15T12:32:16.115Z,2.10
2018-12-15T12:34:44.747Z,2.10
2018-12-15T12:37:13.219Z,2.10
2018-12-15T12:39:41.589Z,2.10
2018-12-15T12:42:09.942Z,2.00
2018-12-15T12:44:38.411Z,2.00
2018-12-15T12:47:06.766Z,2.00
2018-12-15T12:49:35.165Z,2.00
2018-12-15T12:52:03.525Z,2.00
2018-12-15T12:54:31.951Z,2.00
2018-12-15T12:57:00.821Z,2.00
2018-12-15T12:59:29.215Z,1.90
2018-12-15T13:01:57.663Z,1.90
2018-12-15T13:04:26.056Z,1.90
2018-12-15T13:06:54.563Z,1.90
2018-12-15T13:09:22.947Z,1.90
2018-12-15T13:11:51.415Z,1.90
2018-12-15T13:14:19.881Z,1.80
2018-12-15T13:16:48.258Z,1.80
2018-12-15T13:19:17.072Z,1.80
2018-12-15T13:21:45.692Z,1.80
2018-12-15T13:24:14.131Z,1.70
2018-12-15T13:26:42.475Z,1.70
2018-12-15T13:29:10.854Z,1.70
2018-12-15T13:31:39.299Z,1.70
2018-12-15T13:34:07.719Z,1.70
2018-12-15T13:36:36.072Z,1.70
2018-12-15T13:39:05.312Z,1.70
2018-12-15T13:41:33.944Z,1.70
2018-12-15T13:44:02.316Z,1.70
2018-12-15T13:46:30.736Z,1.60
2018-12-15T13:48:59.105Z,1.60
2018-12-15T13:51:27.491Z,1.60
2018-12-15T13:53:55.979Z,1.60
2018-12-15T13:56:24.359Z,1.60
2018-12-15T13:58:52.710Z,1.60
2018-12-15T14:01:21.144Z,1.60
2018-12-15T14:03:49.517Z,1.60
2018-12-15T14:06:17.888Z,1.60
2018-12-15T14:08:46.357Z,1.60
2018-12-15T14:11:14.734Z,1.50
2018-12-15T14:13:43.088Z,1.50
2018-12-15T14:16:11.540Z,1.50
2018-12-15T14:18:39.862Z,1.50
2018-12-15T14:21:10.273Z,1.50
2018-12-15T14:23:38.657Z,1.40
2018-12-15T14:26:07.051Z,1.40
2018-12-15T14:28:35.523Z,1.40
2018-12-15T14:31:04.030Z,1.40
2018-12-15T14:33:32.493Z,1.40
2018-12-15T14:36:00.958Z,1.40
2018-12-15T14:38:29.296Z,1.40
2018-12-15T14:40:57.708Z,1.40
2018-12-15T14:43:26.131Z,1.40
2018-12-15T14:45:54.649Z,1.40
2018-12-15T14:48:23.061Z,1.40
2018-12-15T14:50:51.443Z,1.40
2018-12-15T14:53:19.923Z,1.40
2018-12-15T14:55:48.375Z,1.40
2018-12-15T14:58:16.840Z,1.40
2018-12-15T15:00:45.199Z,1.40
2018-12-15T15:03:13.581Z,1.40
2018-12-15T15:05:41.956Z,1.30
2018-12-15T15:08:10.336Z,1.30
2018-12-15T15:10:38.926Z,1.30
2018-12-15T15:13:07.295Z,1.30
2018-12-15T15:15:35.652Z,1.30
2018-12-15T15:18:04.109Z,1.30
2018-12-15T15:20:32.472Z,1.30
2018-12-15T15:23:00.859Z,1.30
2018-12-15T15:25:29.208Z,1.30
2018-12-15T15:27:57.584Z,1.30
2018-12-15T15:30:26.024Z,1.30
2018-12-15T15:32:54.403Z,1.30
2018-12-15T15:35:22.907Z,1.30
2018-12-15T15:37:51.308Z,1.30
2018-12-15T15:40:19.765Z,1.30
2018-12-15T15:42:48.108Z,1.30
2018-12-15T15:45:16.610Z,1.30
2018-12-15T15:47:44.972Z,1.20
2018-12-15T15:50:13.741Z,1.20
2018-12-15T15:52:42.156Z,1.20
2018-12-15T15:55:10.534Z,1.20
2018-12-15T15:57:38.873Z,1.20
2018-12-15T16:00:09.154Z,1.20
2018-12-15T16:02:37.572Z,1.20
2018-12-15T16:05:06.461Z,1.20
2018-12-15T16:07:34.932Z,1.20
2018-12-15T16:10:03.807Z,1.20
2018-12-15T16:12:32.159Z,1.20
2018-12-15T16:15:00.533Z,1.20
2018-12-15T16:17:28.909Z,1.20
2018-12-15T16:19:57.339Z,1.20
2018-12-15T16:22:25.828Z,1.20
2018-12-15T16:24:54.297Z,1.20
2018-12-15T16:27:22.670Z,1.20
2018-12-15T16:29:51.084Z,1.20
2018-12-15T16:32:19.451Z,1.20
2018-12-15T16:34:47.815Z,1.20
2018-12-15T16:37:16.291Z,1.20
2018-12-15T16:39:44.755Z,1.20
2018-12-15T16:42:13.349Z,1.20
2018-12-15T16:44:41.714Z,1.20
2018-12-15T16:47:10.076Z,1.20
2018-12-15T16:49:38.470Z,1.10
2018-12-15T16:52:06.997Z,1.10
2018-12-15T16:54:35.379Z,1.10
2018-12-15T16:57:03.914Z,1.10
2018-12-15T16:59:32.283Z,1.10
2018-12-15T17:02:00.663Z,1.10
2018-12-15T17:04:29.097Z,1.10
2018-12-15T17:06:57.513Z,1.10
2018-12-15T17:09:25.882Z,1.10
2018-12-15T17:11:54.335Z,1.10
2018-12-15T17:14:22.969Z,1.10
2018-12-15T17:16:51.421Z,1.10
2018-12-15T17:19:20.313Z,1.10
2018-12-15T17:21:48.692Z,1.10
2018-12-15T17:24:17.114Z,1.10
2018-12-15T17:26:45.541Z,1.10
2018-12-15T17:29:13.911Z,1.10
2018-12-15T17:31:42.347Z,1.00
2018-12-15T17:34:11.005Z,1.00
2018-12-15T17:36:39.456Z,1.00
2018-12-15T17:39:08.342Z,1.00
2018-12-15T17:41:36.731Z,1.00
2018-12-15T17:44:05.110Z,1.00
2018-12-15T17:46:33.764Z,1.00
2018-12-15T17:49:02.198Z,1.00
2018-12-15T17:51:30.557Z,1.00
2018-12-15T17:53:58.923Z,1.00
2018-12-15T17:56:27.283Z,1.00
2018-12-15T17:58:55.671Z,1.00
2018-12-15T18:01:24.097Z,1.00
2018-12-15T18:03:52.562Z,1.00
2018-12-15T18:06:20.921Z,1.00
2018-12-15T18:08:49.307Z,1.00
2018-12-15T18:11:17.737Z,1.00
2018-12-15T18:13:46.259Z,1.00
2018-12-15T18:16:14.592Z,1.00
2018-12-15T18:18:43.053Z,1.00
2018-12-15T18:21:12.355Z,1.00
2018-12-15T18:23:40.780Z,1.00
2018-12-15T18:26:09.199Z,1.00
2018-12-15T18:28:37.570Z,1.00
2018-12-15T18:31:05.945Z,1.00
2018-12-15T18:33:37.128Z,1.00
2018-12-15T18:36:04.790Z,1.00
2018-12-15T18:38:33.167Z,1.00
2018-12-15T18:41:01.559Z,1.00
2018-12-15T18:43:29.983Z,1.00
2018-12-15T18:45:58.375Z,1.00
2018-12-15T18:48:26.753Z,1.00
2018-12-15T18:50:55.116Z,1.00
2018-12-15T18:53:23.490Z,1.00
2018-12-15T18:55:51.818Z,1.00
2018-12-15T18:58:20.222Z,1.00
2018-12-15T19:00:48.571Z,0.90
2018-12-15T19:03:16.964Z,0.80
2018-12-15T19:05:45.875Z,0.80
2018-12-15T19:08:14.222Z,0.80
2018-12-15T19:10:42.603Z,0.70
2018-12-15T19:13:10.959Z,0.70
2018-12-15T19:15:40.255Z,0.70
2018-12-15T19:18:08.611Z,0.70
2018-12-15T19:20:38.360Z,0.70
2018-12-15T19:23:06.783Z,0.70
2018-12-15T19:25:35.144Z,0.70
2018-12-15T19:28:03.612Z,0.60
2018-12-15T19:30:32.238Z,0.60
2018-12-15T19:33:00.568Z,0.60
2018-12-15T19:35:29.002Z,0.60
2018-12-15T19:37:57.345Z,0.60
2018-12-15T19:40:25.680Z,0.60
2018-12-15T19:42:53.992Z,0.50
2018-12-15T19:45:22.336Z,0.50
2018-12-15T19:47:50.766Z,0.50
2018-12-15T19:50:19.151Z,0.50
2018-12-15T19:52:47.571Z,0.50
2018-12-15T19:55:15.951Z,0.50
2018-12-15T19:57:44.461Z,0.50
2018-12-15T20:00:13.016Z,0.50
2018-12-15T20:02:41.498Z,0.40
2018-12-15T20:05:10.112Z,0.40
2018-12-15T20:07:39.909Z,0.40
2018-12-15T20:10:08.634Z,0.40
2018-12-15T20:12:37.107Z,0.40
2018-12-15T20:15:05.803Z,0.40
2018-12-15T20:17:34.242Z,0.40
2018-12-15T20:20:02.632Z,0.40
2018-12-15T20:22:30.988Z,0.40
2018-12-15T20:24:59.372Z,0.40
2018-12-15T20:27:27.751Z,0.40
2018-12-15T20:29:56.139Z,0.40
2018-12-15T20:32:24.500Z,0.40
2018-12-15T20:34:52.894Z,0.40
2018-12-15T20:37:21.287Z,0.40
2018-12-15T20:39:49.636Z,0.50
2018-12-15T20:42:18.232Z,0.50
2018-12-15T20:44:46.627Z,0.50
2018-12-15T20:47:15.027Z,0.60
2018-12-15T20:49:43.382Z,0.60
2018-12-15T20:52:11.740Z,0.60
2018-12-15T20:54:40.107Z,0.70
2018-12-15T20:57:08.552Z,0.70
2018-12-15T20:59:36.939Z,0.70
2018-12-15T21:02:05.438Z,0.80
2018-12-15T21:04:33.787Z,0.80
2018-12-15T21:07:02.176Z,0.80
2018-12-15T21:09:31.260Z,0.80
2018-12-15T21:11:59.667Z,0.90
2018-12-15T21:14:28.030Z,0.90
2018-12-15T21:16:56.439Z,0.90
2018-12-15T21:19:24.781Z,0.90
2018-12-15T21:21:53.247Z,0.90
2018-12-15T21:24:21.707Z,0.90
2018-12-15T21:26:50.055Z,0.90
2018-12-15T21:29:18.531Z,0.90
2018-12-15T21:31:47.016Z,0.90
2018-12-15T21:34:15.423Z,0.90
2018-12-15T21:36:43.846Z,0.90
2018-12-15T21:39:12.199Z,0.90
2018-12-15T21:41:40.685Z,0.90
2018-12-15T21:44:09.078Z,0.90
2018-12-15T21:46:37.560Z,0.90
2018-12-15T21:49:05.891Z,0.90
2018-12-15T21:51:34.279Z,0.80
2018-12-15T21:54:02.676Z,0.80
2018-12-15T21:56:31.125Z,0.80
2018-12-15T21:58:59.477Z,0.80
2018-12-15T22:01:27.935Z,0.80
2018-12-15T22:03:56.318Z,0.80
2018-12-15T22:06:24.691Z,0.80
2018-12-15T22:08:53.063Z,0.80
2018-12-15T22:11:21.425Z,0.90
2018-12-15T22:13:49.837Z,0.90
2018-12-15T22:16:18.337Z,0.90
2018-12-15T22:18:46.693Z,0.90
2018-12-15T22:21:15.051Z,0.90
2018-12-15T22:23:43.475Z,0.90
2018-12-15T22:26:11.864Z,0.90
2018-12-15T22:28:40.196Z,0.90
2018-12-15T22:31:08.587Z,0.90
2018-12-15T22:33:37.110Z,0.80
2018-12-15T22:36:05.500Z,0.80
2018-12-15T22:38:34.375Z,0.80
2018-12-15T22:41:03.656Z,0.80
2018-12-15T22:43:33.239Z,0.70
2018-12-15T22:46:01.596Z,0.70
2018-12-15T22:48:30.128Z,0.70
2018-12-15T22:50:59.409Z,0.60
2018-12-15T22:53:27.793Z,0.60
2018-12-15T22:55:56.219Z,0.60
2018-12-15T22:58:24.693Z,0.50
2018-12-15T23:00:59.503Z,0.50
2018-12-15T23:03:27.975Z,0.50
2018-12-15T23:05:56.359Z,0.50
2018-12-15T23:08:24.819Z,0.40
2018-12-15T23:10:53.967Z,0.40
2018-12-15T23:13:22.621Z,0.40
2018-12-15T23:15:51.048Z,0.30
2018-12-15T23:18:19.439Z,0.30
2018-12-15T23:20:47.956Z,0.20
2018-12-15T23:23:16.389Z,0.20
2018-12-15T23:25:44.776Z,0.20
2018-12-15T23:28:13.969Z,0.10
2018-12-15T23:30:42.348Z,0.10
2018-12-15T23:33:10.713Z,0.10
2018-12-15T23:35:39.079Z,0.10
2018-12-15T23:38:07.455Z,0.10
2018-12-15T23:40:35.879Z,0.10
2018-12-15T23:43:04.360Z,0.10
2018-12-15T23:45:32.764Z,0.10
2018-12-15T23:48:01.098Z,0.10
2018-12-15T23:50:29.451Z,0.10
2018-12-15T23:52:57.883Z,0.10
2018-12-15T23:55:26.547Z,0.20
2018-12-15T23:57:55.253Z,0.20
